createdAt,value
2022-08-25T00:00:44.129Z,100.00
2022-08-25T00:01:50.842Z,100.00
2022-08-25T00:02:56.241Z,100.00
2022-08-25T00:03:59.438Z,100.00
2022-08-25T00:05:01.222Z,100.00
2022-08-25T00:06:05.922Z,100.00
2022-08-25T00:07:07.629Z,100.00
2022-08-25T00:08:09.256Z,100.00
2022-08-25T00:09:12.301Z,100.00
2022-08-25T00:10:13.914Z,100.00
2022-08-25T00:11:21.331Z,100.00
2022-08-25T00:12:22.883Z,100.00
2022-08-25T00:13:24.927Z,100.00
2022-08-25T00:14:29.316Z,100.00
2022-08-25T00:15:31.855Z,100.00
2022-08-25T00:16:34.222Z,100.00
2022-08-25T00:17:35.908Z,100.00
2022-08-25T00:18:38.169Z,100.00
2022-08-25T00:19:39.849Z,100.00
2022-08-25T00:20:41.356Z,100.00
2022-08-25T00:21:50.989Z,100.00
2022-08-25T00:22:52.918Z,100.00
2022-08-25T00:23:55.306Z,100.00
2022-08-25T00:24:56.977Z,100.00
2022-08-25T00:25:58.580Z,100.00
2022-08-25T00:27:01.150Z,100.00
2022-08-25T00:28:08.264Z,100.00
2022-08-25T00:29:10.639Z,100.00
2022-08-25T00:30:14.086Z,100.00
2022-08-25T00:31:19.757Z,100.00
2022-08-25T00:32:21.468Z,100.00
2022-08-25T00:33:23.130Z,100.00
2022-08-25T00:34:29.712Z,100.00
2022-08-25T00:35:31.245Z,100.00
2022-08-25T00:36:33.595Z,100.00
2022-08-25T00:37:37.840Z,100.00
2022-08-25T00:38:40.706Z,100.00
2022-08-25T00:39:42.279Z,100.00
2022-08-25T00:40:44.696Z,100.00
2022-08-25T00:41:47.952Z,100.00
2022-08-25T00:42:49.551Z,100.00
2022-08-25T00:43:59.375Z,100.00
2022-08-25T00:45:00.954Z,100.00
2022-08-25T00:46:02.554Z,100.00
2022-08-25T00:47:05.073Z,100.00
2022-08-25T00:48:06.952Z,100.00
2022-08-25T00:49:25.451Z,100.00
2022-08-25T00:50:28.873Z,100.00
2022-08-25T00:51:36.630Z,100.00
2022-08-25T00:52:43.189Z,100.00
2022-08-25T00:53:45.432Z,100.00
2022-08-25T00:54:50.739Z,100.00
2022-08-25T00:55:53.456Z,100.00
2022-08-25T00:56:56.050Z,100.00
2022-08-25T00:58:02.123Z,100.00
2022-08-25T00:59:04.622Z,100.00
2022-08-25T01:00:14.205Z,100.00
2022-08-25T01:01:15.828Z,100.00
2022-08-25T01:02:17.864Z,100.00
2022-08-25T01:03:20.232Z,100.00
2022-08-25T01:04:22.054Z,100.00
2022-08-25T01:05:24.211Z,100.00
2022-08-25T01:06:27.594Z,100.00
2022-08-25T01:07:29.205Z,100.00
2022-08-25T01:08:32.112Z,100.00
2022-08-25T01:09:34.721Z,100.00
2022-08-25T01:10:37.931Z,100.00
2022-08-25T01:11:40.470Z,100.00
2022-08-25T01:12:42.103Z,100.00
2022-08-25T01:13:45.029Z,100.00
2022-08-25T01:14:48.109Z,100.00
2022-08-25T01:15:52.514Z,100.00
2022-08-25T01:16:54.415Z,100.00
2022-08-25T01:17:56.782Z,100.00
2022-08-25T01:18:59.894Z,100.00
2022-08-25T01:20:01.663Z,100.00
2022-08-25T01:21:03.707Z,100.00
2022-08-25T01:22:05.770Z,100.00
2022-08-25T01:23:07.506Z,100.00
2022-08-25T01:24:11.255Z,100.00
2022-08-25T01:25:28.860Z,100.00
2022-08-25T01:26:32.266Z,100.00
2022-08-25T01:27:34.180Z,100.00
2022-08-25T01:28:36.184Z,100.00
2022-08-25T01:29:38.230Z,100.00
2022-08-25T01:32:10.382Z,100.00
2022-08-25T01:33:12.447Z,100.00
2022-08-25T01:34:15.077Z,100.00
2022-08-25T01:35:16.887Z,100.00
2022-08-25T01:36:19.748Z,100.00
2022-08-25T01:37:21.283Z,100.00
2022-08-25T01:38:23.138Z,100.00
2022-08-25T01:39:26.114Z,100.00
2022-08-25T01:40:28.013Z,100.00
2022-08-25T01:41:35.802Z,100.00
2022-08-25T01:43:06.660Z,100.00
2022-08-25T01:44:08.774Z,100.00
2022-08-25T01:45:18.365Z,100.00
2022-08-25T01:46:20.504Z,100.00
2022-08-25T01:47:23.811Z,100.00
2022-08-25T01:48:26.343Z,100.00
2022-08-25T01:49:28.017Z,100.00
2022-08-25T01:50:29.547Z,100.00
2022-08-25T01:51:33.974Z,100.00
2022-08-25T01:52:47.643Z,100.00
2022-08-25T01:53:49.967Z,100.00
2022-08-25T01:54:51.611Z,100.00
2022-08-25T01:56:01.111Z,100.00
2022-08-25T01:57:04.400Z,100.00
2022-08-25T01:58:06.525Z,100.00
2022-08-25T01:59:08.296Z,100.00
2022-08-25T02:00:13.349Z,100.00
2022-08-25T02:01:17.762Z,100.00
2022-08-25T02:02:19.378Z,100.00
2022-08-25T02:03:24.831Z,100.00
2022-08-25T02:04:31.434Z,100.00
2022-08-25T02:05:33.496Z,100.00
2022-08-25T02:06:35.033Z,100.00
2022-08-25T02:07:37.717Z,100.00
2022-08-25T02:08:40.366Z,100.00
2022-08-25T02:09:43.619Z,100.00
2022-08-25T02:10:45.938Z,100.00
2022-08-25T02:11:47.466Z,100.00
2022-08-25T02:12:50.478Z,100.00
2022-08-25T02:13:54.697Z,100.00
2022-08-25T02:14:56.446Z,100.00
2022-08-25T02:15:59.626Z,100.00
2022-08-25T02:17:01.235Z,100.00
2022-08-25T02:18:03.330Z,100.00
2022-08-25T02:19:06.812Z,100.00
2022-08-25T02:20:09.086Z,100.00
2022-08-25T02:21:11.007Z,100.00
2022-08-25T02:22:12.675Z,100.00
2022-08-25T02:23:14.524Z,100.00
2022-08-25T02:24:16.091Z,100.00
2022-08-25T02:25:18.433Z,100.00
2022-08-25T02:26:20.458Z,100.00
2022-08-25T02:27:22.844Z,100.00
2022-08-25T02:28:25.151Z,100.00
2022-08-25T02:29:26.874Z,100.00
2022-08-25T02:30:28.751Z,100.00
2022-08-25T02:31:30.655Z,100.00
2022-08-25T02:32:32.319Z,100.00
2022-08-25T02:33:34.153Z,100.00
2022-08-25T02:34:35.676Z,100.00
2022-08-25T02:35:37.714Z,100.00
2022-08-25T02:36:39.566Z,100.00
2022-08-25T02:37:41.433Z,100.00
2022-08-25T02:38:43.140Z,100.00
2022-08-25T02:39:44.796Z,100.00
2022-08-25T02:40:46.446Z,100.00
2022-08-25T02:41:48.310Z,100.00
2022-08-25T02:42:50.899Z,100.00
2022-08-25T02:43:52.412Z,100.00
2022-08-25T02:44:54.110Z,100.00
2022-08-25T02:45:55.860Z,100.00
2022-08-25T02:46:57.452Z,100.00
2022-08-25T02:47:59.035Z,100.00
2022-08-25T02:49:00.615Z,100.00
2022-08-25T02:50:05.436Z,100.00
2022-08-25T02:51:08.243Z,100.00
2022-08-25T02:52:09.751Z,100.00
2022-08-25T02:53:11.271Z,100.00
2022-08-25T02:54:15.528Z,100.00
2022-08-25T02:55:18.155Z,100.00
2022-08-25T02:56:19.801Z,100.00
2022-08-25T02:57:21.433Z,100.00
2022-08-25T02:58:23.293Z,100.00
2022-08-25T02:59:25.034Z,100.00
2022-08-25T03:00:27.060Z,100.00
2022-08-25T03:01:29.764Z,100.00
2022-08-25T03:02:31.774Z,100.00
2022-08-25T03:03:37.540Z,100.00
2022-08-25T03:04:41.423Z,100.00
2022-08-25T03:05:43.210Z,100.00
2022-08-25T03:06:45.484Z,100.00
2022-08-25T03:07:46.981Z,100.00
2022-08-25T03:08:49.249Z,100.00
2022-08-25T03:09:50.812Z,100.00
2022-08-25T03:10:52.387Z,100.00
2022-08-25T03:11:54.079Z,100.00
2022-08-25T03:12:55.777Z,100.00
2022-08-25T03:13:57.405Z,100.00
2022-08-25T03:14:58.951Z,100.00
2022-08-25T03:16:01.338Z,100.00
2022-08-25T03:17:07.037Z,100.00
2022-08-25T03:18:11.309Z,100.00
2022-08-25T03:19:16.101Z,100.00
2022-08-25T03:20:18.505Z,100.00
2022-08-25T03:21:20.569Z,100.00
2022-08-25T03:22:22.293Z,100.00
2022-08-25T03:23:24.064Z,100.00
2022-08-25T03:24:26.351Z,100.00
2022-08-25T03:25:47.074Z,100.00
2022-08-25T03:26:55.424Z,100.00
2022-08-25T03:27:57.177Z,100.00
2022-08-25T03:28:59.840Z,100.00
2022-08-25T03:30:02.795Z,100.00
2022-08-25T03:31:04.819Z,100.00
2022-08-25T03:32:07.053Z,100.00
2022-08-25T03:33:08.790Z,100.00
2022-08-25T03:34:11.505Z,100.00
2022-08-25T03:35:13.087Z,100.00
2022-08-25T03:36:15.174Z,100.00
2022-08-25T03:37:16.686Z,100.00
2022-08-25T03:38:18.535Z,100.00
2022-08-25T03:39:21.303Z,100.00
2022-08-25T03:40:23.022Z,100.00
2022-08-25T03:41:27.992Z,100.00
2022-08-25T03:42:31.555Z,100.00
2022-08-25T03:43:33.172Z,100.00
2022-08-25T03:44:34.698Z,100.00
2022-08-25T03:45:39.694Z,100.00
2022-08-25T03:46:43.386Z,100.00
2022-08-25T03:47:46.684Z,100.00
2022-08-25T03:48:48.437Z,100.00
2022-08-25T03:49:50.655Z,100.00
2022-08-25T03:50:54.170Z,100.00
2022-08-25T03:51:55.953Z,100.00
2022-08-25T03:52:57.569Z,100.00
2022-08-25T03:53:59.404Z,100.00
2022-08-25T03:55:03.310Z,100.00
2022-08-25T03:56:04.961Z,100.00
2022-08-25T03:57:06.522Z,100.00
2022-08-25T03:58:08.241Z,100.00
2022-08-25T03:59:09.889Z,100.00
2022-08-25T04:00:11.960Z,100.00
2022-08-25T04:01:14.792Z,100.00
2022-08-25T04:02:17.555Z,100.00
2022-08-25T04:03:19.226Z,100.00
2022-08-25T04:04:21.209Z,100.00
2022-08-25T04:05:22.995Z,100.00
2022-08-25T04:06:28.567Z,100.00
2022-08-25T04:07:30.094Z,100.00
2022-08-25T04:08:31.706Z,100.00
2022-08-25T04:09:36.828Z,100.00
2022-08-25T04:10:38.858Z,100.00
2022-08-25T04:11:40.642Z,100.00
2022-08-25T04:12:44.778Z,100.00
2022-08-25T04:13:47.007Z,100.00
2022-08-25T04:14:49.411Z,100.00
2022-08-25T04:15:51.178Z,100.00
2022-08-25T04:16:53.354Z,100.00
2022-08-25T04:17:55.153Z,100.00
2022-08-25T04:18:57.655Z,100.00
2022-08-25T04:20:01.246Z,100.00
2022-08-25T04:21:04.040Z,100.00
2022-08-25T04:22:05.713Z,100.00
2022-08-25T04:23:07.855Z,100.00
2022-08-25T04:24:10.971Z,100.00
2022-08-25T04:25:12.909Z,100.00
2022-08-25T04:26:16.128Z,100.00
2022-08-25T04:27:18.451Z,100.00
2022-08-25T04:28:20.027Z,100.00
2022-08-25T04:29:23.508Z,100.00
2022-08-25T04:30:25.515Z,100.00
2022-08-25T04:31:28.098Z,100.00
2022-08-25T04:32:30.683Z,100.00
2022-08-25T04:33:32.259Z,100.00
2022-08-25T04:34:34.504Z,100.00
2022-08-25T04:35:36.065Z,100.00
2022-08-25T04:36:37.619Z,100.00
2022-08-25T04:37:39.382Z,100.00
2022-08-25T04:38:42.098Z,100.00
2022-08-25T04:39:43.876Z,100.00
2022-08-25T04:40:45.523Z,100.00
2022-08-25T04:41:47.808Z,100.00
2022-08-25T04:42:49.324Z,100.00
2022-08-25T04:43:51.403Z,100.00
2022-08-25T04:44:53.907Z,100.00
2022-08-25T04:45:55.500Z,100.00
2022-08-25T04:46:57.720Z,100.00
2022-08-25T04:48:00.822Z,100.00
2022-08-25T04:49:02.855Z,100.00
2022-08-25T04:50:06.270Z,100.00
2022-08-25T04:51:09.399Z,100.00
2022-08-25T04:52:14.372Z,100.00
2022-08-25T04:53:17.399Z,100.00
2022-08-25T04:54:22.099Z,100.00
2022-08-25T04:55:23.702Z,100.00
2022-08-25T04:56:25.529Z,100.00
2022-08-25T04:57:27.691Z,100.00
2022-08-25T04:58:29.929Z,100.00
2022-08-25T04:59:31.531Z,100.00
2022-08-25T05:00:34.132Z,100.00
2022-08-25T05:01:36.879Z,100.00
2022-08-25T05:02:38.635Z,100.00
2022-08-25T05:03:40.458Z,100.00
2022-08-25T05:04:42.077Z,100.00
2022-08-25T05:05:43.829Z,100.00
2022-08-25T05:06:45.933Z,100.00
2022-08-25T05:07:47.454Z,100.00
2022-08-25T05:08:49.066Z,100.00
2022-08-25T05:09:50.562Z,100.00
2022-08-25T05:10:53.978Z,100.00
2022-08-25T05:11:55.523Z,100.00
2022-08-25T05:12:57.113Z,100.00
2022-08-25T05:14:00.493Z,100.00
2022-08-25T05:15:22.266Z,100.00
2022-08-25T05:16:24.773Z,100.00
2022-08-25T05:17:27.304Z,100.00
2022-08-25T05:18:29.697Z,100.00
2022-08-25T05:19:31.440Z,100.00
2022-08-25T05:20:35.618Z,100.00
2022-08-25T05:21:37.904Z,100.00
2022-08-25T05:22:39.398Z,100.00
2022-08-25T05:23:41.568Z,100.00
2022-08-25T05:24:43.226Z,100.00
2022-08-25T05:25:44.736Z,100.00
2022-08-25T05:26:46.491Z,100.00
2022-08-25T05:27:48.359Z,100.00
2022-08-25T05:28:50.583Z,100.00
2022-08-25T05:29:52.315Z,100.00
2022-08-25T05:30:56.984Z,100.00
2022-08-25T05:31:58.518Z,100.00
2022-08-25T05:33:00.286Z,100.00
2022-08-25T05:34:04.974Z,100.00
2022-08-25T05:35:07.463Z,100.00
2022-08-25T05:36:09.885Z,100.00
2022-08-25T05:37:12.296Z,100.00
2022-08-25T05:38:15.359Z,100.00
2022-08-25T05:39:17.359Z,100.00
2022-08-25T05:40:18.967Z,100.00
2022-08-25T05:41:24.417Z,100.00
2022-08-25T05:42:27.675Z,100.00
2022-08-25T05:43:29.443Z,100.00
2022-08-25T05:44:31.130Z,100.00
2022-08-25T05:45:32.757Z,100.00
2022-08-25T05:46:34.446Z,100.00
2022-08-25T05:47:35.985Z,100.00
2022-08-25T05:48:38.492Z,100.00
2022-08-25T05:49:40.045Z,100.00
2022-08-25T05:50:42.295Z,100.00
2022-08-25T05:51:43.859Z,100.00
2022-08-25T05:52:46.074Z,100.00
2022-08-25T05:53:49.511Z,100.00
2022-08-25T05:54:51.050Z,100.00
2022-08-25T05:55:53.528Z,100.00
2022-08-25T05:56:55.645Z,100.00
2022-08-25T05:57:58.347Z,100.00
2022-08-25T05:59:00.024Z,100.00
2022-08-25T06:00:01.919Z,100.00
2022-08-25T06:01:39.919Z,100.00
2022-08-25T06:02:46.273Z,100.00
2022-08-25T06:03:48.702Z,100.00
2022-08-25T06:04:50.315Z,100.00
2022-08-25T06:05:51.891Z,100.00
2022-08-25T06:06:55.095Z,100.00
2022-08-25T06:07:56.653Z,100.00
2022-08-25T06:08:58.196Z,100.00
2022-08-25T06:09:59.879Z,100.00
2022-08-25T06:11:01.428Z,100.00
2022-08-25T06:12:03.346Z,100.00
2022-08-25T06:13:06.499Z,100.00
2022-08-25T06:14:08.907Z,100.00
2022-08-25T06:15:18.867Z,100.00
2022-08-25T06:16:20.491Z,100.00
2022-08-25T06:17:22.288Z,100.00
2022-08-25T06:18:24.031Z,100.00
2022-08-25T06:19:25.820Z,100.00
2022-08-25T06:20:28.125Z,100.00
2022-08-25T06:21:30.035Z,100.00
2022-08-25T06:22:31.757Z,100.00
2022-08-25T06:23:33.620Z,100.00
2022-08-25T06:24:35.364Z,100.00
2022-08-25T06:25:36.934Z,100.00
2022-08-25T06:26:38.515Z,100.00
2022-08-25T06:27:40.275Z,100.00
2022-08-25T06:28:42.358Z,100.00
2022-08-25T06:29:44.147Z,100.00
2022-08-25T06:30:47.006Z,100.00
2022-08-25T06:31:49.533Z,100.00
2022-08-25T06:32:51.961Z,100.00
2022-08-25T06:33:53.513Z,100.00
2022-08-25T06:34:55.335Z,100.00
2022-08-25T06:35:57.765Z,100.00
2022-08-25T06:36:59.414Z,100.00
2022-08-25T06:38:00.934Z,100.00
2022-08-25T06:39:02.530Z,100.00
2022-08-25T06:40:05.857Z,100.00
2022-08-25T06:41:09.881Z,100.00
2022-08-25T06:42:11.602Z,100.00
2022-08-25T06:43:15.154Z,100.00
2022-08-25T06:44:16.762Z,100.00
2022-08-25T06:45:18.573Z,100.00
2022-08-25T06:46:21.722Z,100.00
2022-08-25T06:47:23.407Z,100.00
2022-08-25T06:48:25.865Z,100.00
2022-08-25T06:49:30.107Z,100.00
2022-08-25T06:50:34.880Z,100.00
2022-08-25T06:51:36.541Z,100.00
2022-08-25T06:52:38.064Z,100.00
2022-08-25T06:53:39.776Z,100.00
2022-08-25T06:54:41.412Z,100.00
2022-08-25T06:55:42.938Z,100.00
2022-08-25T06:56:44.647Z,100.00
2022-08-25T06:57:46.245Z,100.00
2022-08-25T06:58:48.529Z,100.00
2022-08-25T06:59:53.379Z,100.00
2022-08-25T07:00:55.700Z,100.00
2022-08-25T07:01:57.420Z,100.00
2022-08-25T07:03:00.623Z,100.00
2022-08-25T07:04:03.216Z,100.00
2022-08-25T07:05:06.434Z,100.00
2022-08-25T07:06:09.779Z,100.00
2022-08-25T07:07:12.119Z,100.00
2022-08-25T07:08:13.611Z,100.00
2022-08-25T07:09:15.306Z,100.00
2022-08-25T07:10:19.548Z,100.00
2022-08-25T07:11:21.437Z,100.00
2022-08-25T07:12:24.035Z,99.95
2022-08-25T07:13:27.031Z,100.00
2022-08-25T07:14:28.675Z,100.00
2022-08-25T07:15:30.432Z,100.00
2022-08-25T07:16:32.439Z,100.00
2022-08-25T07:17:34.303Z,100.00
2022-08-25T07:18:36.199Z,100.00
2022-08-25T07:19:37.883Z,99.77
2022-08-25T07:20:39.928Z,99.78
2022-08-25T07:21:45.083Z,99.64
2022-08-25T07:22:47.530Z,99.36
2022-08-25T07:23:49.170Z,99.96
2022-08-25T07:24:50.774Z,100.00
2022-08-25T07:25:53.541Z,99.85
2022-08-25T07:26:55.361Z,99.55
2022-08-25T07:27:58.975Z,99.55
2022-08-25T07:29:01.644Z,99.79
2022-08-25T07:30:05.960Z,99.89
2022-08-25T07:31:07.544Z,99.90
2022-08-25T07:32:11.547Z,100.00
2022-08-25T07:33:13.537Z,99.31
2022-08-25T07:34:34.588Z,98.35
2022-08-25T07:35:37.904Z,98.89
2022-08-25T07:36:40.084Z,98.77
2022-08-25T07:37:49.316Z,99.04
2022-08-25T07:38:52.005Z,99.08
2022-08-25T07:39:53.978Z,99.44
2022-08-25T07:41:03.347Z,99.04
2022-08-25T07:42:05.299Z,99.31
2022-08-25T07:43:13.538Z,99.47
2022-08-25T07:44:15.336Z,99.36
2022-08-25T07:45:21.016Z,99.32
2022-08-25T07:46:23.055Z,99.26
2022-08-25T07:47:24.588Z,99.27
2022-08-25T07:48:26.586Z,98.71
2022-08-25T07:49:35.745Z,98.44
2022-08-25T07:50:44.675Z,98.62
2022-08-25T07:52:05.661Z,98.64
2022-08-25T07:53:09.669Z,98.85
2022-08-25T07:54:12.250Z,99.14
2022-08-25T07:55:17.967Z,98.94
2022-08-25T07:56:19.959Z,99.09
2022-08-25T07:57:24.021Z,98.44
2022-08-25T07:58:25.629Z,98.58
2022-08-25T07:59:27.214Z,97.62
2022-08-25T08:00:32.036Z,97.56
2022-08-25T08:01:34.178Z,97.34
2022-08-25T08:02:40.927Z,97.50
2022-08-25T08:03:50.240Z,97.56
2022-08-25T08:04:53.244Z,97.83
2022-08-25T08:05:56.069Z,97.89
2022-08-25T08:06:57.691Z,97.97
2022-08-25T08:07:59.768Z,98.34
2022-08-25T08:09:02.346Z,98.33
2022-08-25T08:10:29.705Z,98.89
2022-08-25T08:11:27.756Z,98.60
2022-08-25T08:12:29.409Z,98.53
2022-08-25T08:13:32.273Z,98.61
2022-08-25T08:14:39.586Z,98.31
2022-08-25T08:15:47.258Z,98.18
2022-08-25T08:16:49.069Z,97.95
2022-08-25T08:17:50.899Z,97.51
2022-08-25T08:18:52.863Z,97.36
2022-08-25T08:19:54.812Z,97.53
2022-08-25T08:20:56.436Z,97.77
2022-08-25T08:21:57.988Z,97.76
2022-08-25T08:22:59.678Z,97.37
2022-08-25T08:24:02.067Z,97.17
2022-08-25T08:25:10.590Z,97.56
2022-08-25T08:26:12.818Z,97.36
2022-08-25T08:27:15.474Z,96.99
2022-08-25T08:28:21.611Z,96.98
2022-08-25T08:29:26.770Z,97.31
2022-08-25T08:30:28.370Z,97.50
2022-08-25T08:31:30.352Z,97.78
2022-08-25T08:33:05.820Z,97.94
2022-08-25T08:33:56.878Z,98.06
2022-08-25T08:34:58.930Z,98.41
2022-08-25T08:36:05.145Z,98.75
2022-08-25T08:37:07.966Z,98.82
2022-08-25T08:38:15.972Z,99.11
2022-08-25T08:39:19.164Z,99.23
2022-08-25T08:40:21.277Z,99.54
2022-08-25T08:42:09.711Z,99.49
2022-08-25T08:43:18.830Z,99.94
2022-08-25T08:44:32.575Z,100.00
2022-08-25T08:45:43.405Z,100.00
2022-08-25T08:46:52.410Z,100.00
2022-08-25T08:47:58.100Z,100.00
2022-08-25T08:49:01.498Z,100.00
2022-08-25T08:50:03.757Z,100.00
2022-08-25T08:51:06.781Z,100.00
2022-08-25T08:52:14.327Z,100.00
2022-08-25T08:53:19.003Z,100.00
2022-08-25T08:54:27.297Z,100.00
2022-08-25T08:55:36.783Z,100.00
2022-08-25T08:56:47.931Z,100.00
2022-08-25T08:57:52.055Z,100.00
2022-08-25T08:58:59.680Z,100.00
2022-08-25T09:00:05.994Z,100.00
2022-08-25T09:01:09.853Z,100.00
2022-08-25T09:02:22.126Z,100.00
2022-08-25T09:03:41.533Z,100.00
2022-08-25T09:04:50.626Z,100.00
2022-08-25T09:05:55.701Z,100.00
2022-08-25T09:07:00.060Z,100.00
2022-08-25T09:08:05.994Z,100.00
2022-08-25T09:09:08.668Z,100.00
2022-08-25T09:10:10.473Z,100.00
2022-08-25T09:11:27.909Z,100.00
2022-08-25T09:12:41.333Z,100.00
2022-08-25T09:14:01.827Z,100.00
2022-08-25T09:15:12.707Z,100.00
2022-08-25T09:16:43.463Z,100.00
2022-08-25T09:17:54.233Z,100.00
2022-08-25T09:18:56.962Z,100.00
2022-08-25T09:20:01.460Z,100.00
2022-08-25T09:21:13.747Z,100.00
2022-08-25T09:22:36.214Z,100.00
2022-08-25T09:23:39.389Z,100.00
2022-08-25T09:25:08.351Z,100.00
2022-08-25T09:26:33.458Z,100.00
2022-08-25T09:27:38.595Z,100.00
2022-08-25T09:28:54.887Z,100.00
2022-08-25T09:30:14.454Z,100.00
2022-08-25T09:31:22.301Z,100.00
2022-08-25T09:32:31.631Z,100.00
2022-08-25T09:33:35.564Z,100.00
2022-08-25T09:34:38.359Z,100.00
2022-08-25T09:35:41.256Z,100.00
2022-08-25T09:36:44.741Z,100.00
2022-08-25T09:38:00.235Z,100.00
2022-08-25T09:39:02.250Z,100.00
2022-08-25T09:40:04.956Z,100.00
2022-08-25T09:41:07.854Z,100.00
2022-08-25T09:42:09.560Z,100.00
2022-08-25T09:43:19.903Z,100.00
2022-08-25T09:44:26.209Z,100.00
2022-08-25T09:45:39.309Z,100.00
2022-08-25T09:46:55.041Z,100.00
2022-08-25T09:47:56.629Z,100.00
2022-08-25T09:49:10.142Z,100.00
2022-08-25T09:50:19.407Z,100.00
2022-08-25T09:51:42.213Z,100.00
2022-08-25T09:52:45.578Z,100.00
2022-08-25T09:54:10.732Z,100.00
2022-08-25T09:55:15.476Z,100.00
2022-08-25T09:56:19.267Z,100.00
2022-08-25T09:57:35.118Z,100.00
2022-08-25T09:58:36.847Z,100.00
2022-08-25T09:59:38.492Z,100.00
2022-08-25T10:00:40.679Z,100.00
2022-08-25T10:01:54.362Z,100.00
2022-08-25T10:03:08.838Z,100.00
2022-08-25T10:04:18.955Z,100.00
2022-08-25T10:05:25.430Z,100.00
2022-08-25T10:06:28.654Z,100.00
2022-08-25T10:07:36.068Z,100.00
2022-08-25T10:08:39.543Z,100.00
2022-08-25T10:09:42.955Z,100.00
2022-08-25T10:10:45.639Z,100.00
2022-08-25T10:11:47.786Z,100.00
2022-08-25T10:12:51.481Z,100.00
2022-08-25T10:14:00.916Z,100.00
2022-08-25T10:15:16.095Z,100.00
2022-08-25T10:16:36.050Z,100.00
2022-08-25T10:17:38.334Z,100.00
2022-08-25T10:18:41.035Z,100.00
2022-08-25T10:19:44.495Z,100.00
2022-08-25T10:21:01.687Z,100.00
2022-08-25T10:22:23.723Z,100.00
2022-08-25T10:23:26.545Z,100.00
2022-08-25T10:24:28.144Z,100.00
2022-08-25T10:25:30.705Z,100.00
2022-08-25T10:26:34.913Z,100.00
2022-08-25T10:27:41.836Z,100.00
2022-08-25T10:28:43.417Z,100.00
2022-08-25T10:29:47.945Z,100.00
2022-08-25T10:30:52.331Z,99.69
2022-08-25T10:31:57.376Z,99.61
2022-08-25T10:33:22.287Z,99.09
2022-08-25T10:34:33.072Z,98.37
2022-08-25T10:35:47.778Z,97.90
2022-08-25T10:36:58.410Z,97.01
2022-08-25T10:38:02.996Z,97.71
2022-08-25T10:39:06.732Z,97.25
2022-08-25T10:40:32.143Z,96.78
2022-08-25T10:41:53.474Z,96.55
2022-08-25T10:42:55.380Z,96.81
2022-08-25T10:44:04.003Z,95.69
2022-08-25T10:45:41.203Z,96.16
2022-08-25T10:46:52.213Z,96.08
2022-08-25T10:48:08.985Z,96.38
2022-08-25T10:49:17.816Z,96.00
2022-08-25T10:50:28.796Z,95.32
2022-08-25T10:51:45.512Z,95.22
2022-08-25T10:53:05.601Z,94.81
2022-08-25T10:54:34.713Z,95.32
2022-08-25T10:55:52.125Z,94.97
2022-08-25T10:56:53.689Z,94.39
2022-08-25T10:58:03.908Z,94.53
2022-08-25T10:59:06.565Z,94.60
2022-08-25T11:00:12.325Z,94.25
2022-08-25T11:01:28.232Z,94.22
2022-08-25T11:02:50.070Z,94.28
2022-08-25T11:03:55.131Z,93.79
2022-08-25T11:05:02.672Z,93.39
2022-08-25T11:06:13.201Z,93.32
2022-08-25T11:07:26.778Z,93.15
2022-08-25T11:08:28.314Z,93.40
2022-08-25T11:09:33.139Z,93.39
2022-08-25T11:10:42.186Z,93.00
2022-08-25T11:11:49.374Z,93.02
2022-08-25T11:12:55.684Z,92.65
2022-08-25T11:14:09.287Z,92.71
2022-08-25T11:15:20.314Z,92.72
2022-08-25T11:16:48.570Z,92.17
2022-08-25T11:17:57.029Z,92.75
2022-08-25T11:19:21.677Z,93.22
2022-08-25T11:20:43.460Z,94.03
2022-08-25T11:21:45.063Z,93.91
2022-08-25T11:23:07.301Z,94.05
2022-08-25T11:24:28.046Z,94.68
2022-08-25T11:25:34.558Z,94.10
2022-08-25T11:26:37.492Z,93.94
2022-08-25T11:27:57.538Z,93.91
2022-08-25T11:29:11.556Z,93.77
2022-08-25T11:30:16.641Z,94.01
2022-08-25T11:31:21.744Z,93.94
2022-08-25T11:32:24.640Z,94.01
2022-08-25T11:33:29.217Z,94.13
2022-08-25T11:34:31.977Z,93.61
2022-08-25T11:35:42.748Z,93.21
2022-08-25T11:36:54.134Z,93.55
2022-08-25T11:38:14.546Z,93.43
2022-08-25T11:39:22.609Z,93.21
2022-08-25T11:40:26.666Z,93.21
2022-08-25T11:41:31.384Z,93.36
2022-08-25T11:42:42.290Z,93.13
2022-08-25T11:43:58.408Z,93.10
2022-08-25T11:44:59.966Z,92.93
2022-08-25T11:46:16.784Z,92.84
2022-08-25T11:47:21.762Z,92.37
2022-08-25T11:48:38.634Z,92.09
2022-08-25T11:49:40.240Z,91.37
2022-08-25T11:51:02.484Z,91.57
2022-08-25T11:52:27.749Z,90.79
2022-08-25T11:53:37.583Z,90.34
2022-08-25T11:54:42.932Z,90.76
2022-08-25T11:55:49.360Z,90.34
2022-08-25T11:57:11.835Z,90.31
2022-08-25T11:58:16.882Z,90.65
2022-08-25T11:59:37.239Z,90.46
2022-08-25T12:00:41.238Z,90.46
2022-08-25T12:01:43.018Z,89.75
2022-08-25T12:02:46.846Z,89.68
2022-08-25T12:03:50.983Z,89.51
2022-08-25T12:04:54.695Z,88.75
2022-08-25T12:06:15.800Z,88.73
2022-08-25T12:07:20.002Z,88.98
2022-08-25T12:08:53.654Z,88.99
2022-08-25T12:10:05.001Z,88.77
2022-08-25T12:11:11.178Z,88.82
2022-08-25T12:12:39.893Z,88.57
2022-08-25T12:13:42.024Z,88.57
2022-08-25T12:14:44.478Z,88.74
2022-08-25T12:15:47.369Z,89.07
2022-08-25T12:16:51.471Z,89.30
2022-08-25T12:18:22.608Z,88.48
2022-08-25T12:19:24.130Z,88.65
2022-08-25T12:20:45.862Z,88.82
2022-08-25T12:21:47.658Z,89.05
2022-08-25T12:22:54.467Z,89.64
2022-08-25T12:24:02.306Z,90.00
2022-08-25T12:25:09.201Z,89.87
2022-08-25T12:26:35.453Z,89.93
2022-08-25T12:28:06.279Z,90.22
2022-08-25T12:29:13.617Z,89.60
2022-08-25T12:30:21.058Z,89.10
2022-08-25T12:31:32.713Z,89.07
2022-08-25T12:32:52.987Z,89.41
2022-08-25T12:34:05.944Z,89.70
2022-08-25T12:35:09.604Z,89.91
2022-08-25T12:36:25.260Z,89.72
2022-08-25T12:37:28.434Z,89.84
2022-08-25T12:38:31.181Z,90.57
2022-08-25T12:39:35.550Z,90.45
2022-08-25T12:40:43.037Z,90.30
2022-08-25T12:41:57.881Z,90.61
2022-08-25T12:43:19.851Z,90.54
2022-08-25T12:44:39.023Z,90.95
2022-08-25T12:45:45.696Z,91.27
2022-08-25T12:47:05.116Z,91.47
2022-08-25T12:48:26.799Z,91.52
2022-08-25T12:49:32.736Z,91.65
2022-08-25T12:50:34.349Z,91.84
2022-08-25T12:51:38.957Z,91.81
2022-08-25T12:52:42.201Z,91.31
2022-08-25T12:53:59.209Z,91.06
2022-08-25T12:55:04.812Z,91.39
2022-08-25T12:56:09.502Z,91.61
2022-08-25T12:57:25.017Z,91.03
2022-08-25T12:58:58.937Z,90.58
2022-08-25T13:00:05.708Z,90.64
2022-08-25T13:01:36.002Z,90.49
2022-08-25T13:02:51.736Z,90.42
2022-08-25T13:03:59.682Z,90.52
2022-08-25T13:05:03.387Z,90.55
2022-08-25T13:06:11.071Z,90.94
2022-08-25T13:07:19.923Z,90.62
2022-08-25T13:08:24.245Z,90.87
2022-08-25T13:09:31.522Z,90.47
2022-08-25T13:10:42.266Z,90.14
2022-08-25T13:12:06.971Z,90.01
2022-08-25T13:13:24.105Z,90.46
2022-08-25T13:14:34.215Z,90.84
2022-08-25T13:15:41.326Z,90.42
2022-08-25T13:16:53.789Z,90.56
2022-08-25T13:17:55.456Z,90.58
2022-08-25T13:19:01.116Z,90.31
2022-08-25T13:20:12.602Z,89.78
2022-08-25T13:21:17.348Z,90.29
2022-08-25T13:22:20.299Z,90.47
2022-08-25T13:23:26.567Z,90.16
2022-08-25T13:24:40.503Z,90.04
2022-08-25T13:25:50.958Z,89.49
2022-08-25T13:27:00.483Z,89.29
2022-08-25T13:28:05.758Z,89.94
2022-08-25T13:29:09.305Z,89.78
2022-08-25T13:30:22.156Z,89.92
2022-08-25T13:31:27.696Z,90.41
2022-08-25T13:32:32.553Z,89.80
2022-08-25T13:33:37.337Z,90.04
2022-08-25T13:34:42.685Z,89.86
2022-08-25T13:35:49.895Z,89.35
2022-08-25T13:37:12.545Z,88.98
2022-08-25T13:38:16.206Z,88.88
2022-08-25T13:39:45.221Z,89.12
2022-08-25T13:40:43.221Z,89.24
2022-08-25T13:41:47.509Z,89.18
2022-08-25T13:43:02.840Z,88.96
2022-08-25T13:44:04.682Z,88.89
2022-08-25T13:45:19.728Z,88.70
2022-08-25T13:46:21.648Z,88.00
2022-08-25T13:47:43.568Z,88.00
2022-08-25T13:48:49.315Z,87.76
2022-08-25T13:49:53.432Z,87.19